Arminto, Wyoming
Current Conditions -  °F | °C
As of 8:53 PM on Saturday 22 Nov 2014 (Local Time) from KCPR Reporting Station
Broken Clouds Broken Clouds  
Wind Chill: 30°   Ceiling: 4800
Heat Index: 36°   Visibility: 10mi
Dew Point: 29°   Wind: 8mph
Humidity: 76%   Direction: 350°N
Pressure: 29.58"   Gusts: NA
Location:  43.18°N, 107.26°W
Report Text: KCPR 230353Z AUTO 35007KT 10SM FEW030 SCT038 BKN048 02/M02 A2958 RMK AO2 WSHFT 0321 SLP012 T00221017
Loading
Personal Weather Stations






























Interactive Weather Map New forecast layout! Learn more

10-Day Weather Forecast

Advertisements
Track Severe Weather on mobile